Time,TemperatureF,DewpointF,PressureIn,WindDirection,WindDirectionDegrees,WindSpeedMPH,WindSpeedGustMPH,Humidity,HourlyPrecipIn,Conditions,Clouds,dailyrainin,SoftwareType,DateUTC
2013-11-01 00:01:00,65.7,50.0,29.85,NNW,338,3.1,3.6,57,0.00,,---,0.00,VWS V14.01,2013-11-01 04:01:00,
2013-11-01 00:02:00,65.7,50.0,29.85,South,180,3.8,3.8,57,0.00,,---,0.00,VWS V14.01,2013-11-01 04:02:00,
2013-11-01 00:07:00,65.7,50.0,29.85,WNW,292,2.9,3.4,57,0.00,,---,0.00,VWS V14.01,2013-11-01 04:07:00,
2013-11-01 00:12:00,65.5,50.3,29.85,WNW,292,2.0,2.0,58,0.00,,---,0.00,VWS V14.01,2013-11-01 04:12:00,
2013-11-01 00:17:00,65.5,50.3,29.85,ENE,68,2.7,2.7,58,0.00,,---,0.00,VWS V14.01,2013-11-01 04:17:00,
2013-11-01 00:22:00,65.1,51.4,29.82,SSW,202,3.8,3.8,61,0.00,,---,0.00,VWS V14.01,2013-11-01 04:22:00,
2013-11-01 00:27:00,65.1,52.2,29.82,NE,45,2.7,3.4,63,0.00,,---,0.00,VWS V14.01,2013-11-01 04:27:00,
2013-11-01 00:32:00,64.8,52.3,29.82,WNW,292,2.2,5.6,64,0.00,,---,0.00,VWS V14.01,2013-11-01 04:32:00,
2013-11-01 00:37:00,64.4,52.8,29.88,SSW,202,6.7,6.7,66,0.00,,---,0.00,VWS V14.01,2013-11-01 04:37:00,
2013-11-01 00:42:00,65.0,52.5,29.88,SW,225,12.8,12.8,64,0.00,,---,0.00,VWS V14.01,2013-11-01 04:42:00,
2013-11-01 00:47:00,65.1,52.7,29.88,WNW,292,15.4,15.4,64,0.00,,---,0.00,VWS V14.01,2013-11-01 04:47:00,
2013-11-01 00:52:00,65.1,52.2,29.85,NNW,338,2.7,5.4,63,0.00,,---,0.00,VWS V14.01,2013-11-01 04:52:00,
2013-11-01 00:57:00,65.1,52.7,29.85,SE,135,5.6,6.9,64,0.00,,---,0.00,VWS V14.01,2013-11-01 04:57:00,
2013-11-01 01:02:00,65.3,52.0,29.85,South,180,10.7,10.7,62,0.00,,---,0.00,VWS V14.01,2013-11-01 05:02:00,
2013-11-01 01:07:00,65.5,51.7,29.85,West,270,2.2,5.4,61,0.00,,---,0.00,VWS V14.01,2013-11-01 05:07:00,
2013-11-01 01:12:00,65.5,51.3,29.85,WNW,292,2.0,2.0,60,0.00,,---,0.00,VWS V14.01,2013-11-01 05:12:00,
2013-11-01 01:17:00,65.5,51.3,29.85,NE,45,2.9,4.9,60,0.00,,---,0.00,VWS V14.01,2013-11-01 05:17:00,
2013-11-01 01:22:00,65.7,51.0,29.82,SSE,158,6.0,6.0,59,0.00,,---,0.00,VWS V14.01,2013-11-01 05:22:00,
2013-11-01 01:27:00,65.7,51.0,29.82,SW,225,4.9,8.5,59,0.00,,---,0.00,VWS V14.01,2013-11-01 05:27:00,
2013-11-01 01:32:00,65.7,51.0,29.82,SSW,202,10.7,10.7,59,0.00,,---,0.00,VWS V14.01,2013-11-01 05:32:00,
2013-11-01 01:37:00,65.5,50.8,29.82,ESE,112,2.7,3.1,59,0.00,,---,0.00,VWS V14.01,2013-11-01 05:37:00,
2013-11-01 01:42:00,65.5,51.3,29.82,NNW,338,1.1,7.2,60,0.00,,---,0.00,VWS V14.01,2013-11-01 05:42:00,
2013-11-01 01:45:00,65.3,51.5,29.82,SW,225,3.8,4.3,61,0.00,,---,0.00,VWS V14.01,2013-11-01 05:45:00,
2013-11-01 01:50:00,65.3,51.5,29.85,SSW,202,2.5,3.4,61,0.00,,---,0.00,VWS V14.01,2013-11-01 05:50:00,
2013-11-01 01:55:00,65.3,52.0,29.85,South,180,4.0,9.4,62,0.00,,---,0.00,VWS V14.01,2013-11-01 05:55:00,
2013-11-01 02:00:00,65.1,52.7,29.85,SE,135,4.0,4.7,64,0.00,,---,0.00,VWS V14.01,2013-11-01 06:00:00,
2013-11-01 02:05:00,65.1,52.7,29.85,SSE,158,6.0,6.0,64,0.00,,---,0.00,VWS V14.01,2013-11-01 06:05:00,
2013-11-01 02:10:00,64.4,52.8,29.85,WNW,292,5.8,7.4,66,0.00,,---,0.00,VWS V14.01,2013-11-01 06:10:00,
2013-11-01 02:15:00,64.2,53.1,29.85,SE,135,10.1,10.1,67,0.00,,---,0.00,VWS V14.01,2013-11-01 06:15:00,
2013-11-01 02:20:00,63.9,53.1,29.85,NNW,338,2.0,3.1,68,0.04,,---,0.04,VWS V14.01,2013-11-01 06:20:00,
2013-11-01 02:25:00,63.7,53.3,29.85,East,90,2.9,7.2,69,0.04,,---,0.04,VWS V14.01,2013-11-01 06:25:00,
2013-11-01 02:30:00,64.1,53.7,29.85,SE,135,8.1,8.1,69,0.04,,---,0.04,VWS V14.01,2013-11-01 06:30:00,
2013-11-01 02:35:00,63.9,53.5,29.85,WNW,292,2.7,2.7,69,0.04,,---,0.04,VWS V14.01,2013-11-01 06:35:00,
2013-11-01 02:40:00,63.7,53.7,29.85,WNW,292,1.6,1.6,70,0.04,,---,0.04,VWS V14.01,2013-11-01 06:40:00,
2013-11-01 02:45:00,63.9,53.5,29.85,SSW,202,2.9,2.9,69,0.04,,---,0.04,VWS V14.01,2013-11-01 06:45:00,
2013-11-01 02:50:00,63.7,54.5,29.85,NNW,338,3.8,4.9,72,0.04,,---,0.04,VWS V14.01,2013-11-01 06:50:00,
2013-11-01 02:55:00,63.3,55.3,29.85,SSW,202,4.9,5.4,75,0.04,,---,0.04,VWS V14.01,2013-11-01 06:55:00,
2013-11-01 03:00:00,63.7,54.5,29.85,NE,45,1.6,1.6,72,0.04,,---,0.04,VWS V14.01,2013-11-01 07:00:00,
2013-11-01 03:05:00,63.7,55.3,29.82,SE,135,5.6,5.6,74,0.04,,---,0.04,VWS V14.01,2013-11-01 07:05:00,
2013-11-01 03:10:00,63.9,54.3,29.82,WSW,248,1.3,2.7,71,0.04,,---,0.04,VWS V14.01,2013-11-01 07:10:00,
2013-11-01 03:15:00,63.7,54.5,29.82,South,180,0.9,2.7,72,0.04,,---,0.04,VWS V14.01,2013-11-01 07:15:00,
2013-11-01 03:20:00,65.0,53.3,29.82,WSW,248,1.3,7.8,66,0.04,,---,0.04,VWS V14.01,2013-11-01 07:20:00,
2013-11-01 03:25:00,64.6,53.8,29.82,ENE,68,1.6,3.6,68,0.00,,---,0.04,VWS V14.01,2013-11-01 07:25:00,
2013-11-01 03:30:00,64.4,53.2,29.82,SE,135,11.0,12.3,67,0.00,,---,0.04,VWS V14.01,2013-11-01 07:30:00,
2013-11-01 03:35:00,64.6,53.4,29.82,West,270,4.3,4.3,67,0.00,,---,0.04,VWS V14.01,2013-11-01 07:35:00,
2013-11-01 03:40:00,64.6,53.4,29.82,WNW,292,2.0,2.0,67,0.00,,---,0.04,VWS V14.01,2013-11-01 07:40:00,
2013-11-01 03:45:00,64.6,53.8,29.82,SE,135,2.9,4.7,68,0.00,,---,0.04,VWS V14.01,2013-11-01 07:45:00,
2013-11-01 03:50:00,64.8,53.2,29.82,ESE,112,2.9,2.9,66,0.00,,---,0.04,VWS V14.01,2013-11-01 07:50:00,
2013-11-01 03:55:00,64.6,53.4,29.82,West,270,4.7,7.2,67,0.05,,---,0.09,VWS V14.01,2013-11-01 07:55:00,
2013-11-01 04:00:00,64.1,53.3,29.82,SSW,202,4.0,4.0,68,0.05,,---,0.09,VWS V14.01,2013-11-01 08:00:00,
2013-11-01 04:05:00,64.1,53.3,29.79,SSE,158,2.2,2.2,68,0.05,,---,0.09,VWS V14.01,2013-11-01 08:05:00,
2013-11-01 04:10:00,64.4,52.4,29.79,East,90,3.4,3.4,65,0.05,,---,0.09,VWS V14.01,2013-11-01 08:10:00,
2013-11-01 04:15:00,64.6,52.2,29.79,SE,135,2.0,2.0,64,0.05,,---,0.09,VWS V14.01,2013-11-01 08:15:00,
2013-11-01 04:20:00,64.6,52.2,29.76,SSW,202,2.9,2.9,64,0.05,,---,0.09,VWS V14.01,2013-11-01 08:20:00,
2013-11-01 04:25:00,64.6,52.2,29.76,SE,135,2.9,2.9,64,0.05,,---,0.09,VWS V14.01,2013-11-01 08:25:00,
2013-11-01 04:30:00,64.2,52.2,29.76,NNW,338,3.4,4.3,65,0.05,,---,0.09,VWS V14.01,2013-11-01 08:30:00,
2013-11-01 04:35:00,64.1,52.5,29.79,ESE,112,7.8,7.8,66,0.05,,---,0.09,VWS V14.01,2013-11-01 08:35:00,
2013-11-01 04:40:00,63.9,52.7,29.79,SE,135,1.6,2.5,67,0.05,,---,0.09,VWS V14.01,2013-11-01 08:40:00,
2013-11-01 04:45:00,63.7,53.3,29.79,ENE,68,4.0,4.0,69,0.05,,---,0.09,VWS V14.01,2013-11-01 08:45:00,
2013-11-01 04:50:00,64.4,53.2,29.79,SSE,158,8.5,13.2,67,0.05,,---,0.09,VWS V14.01,2013-11-01 08:50:00,
2013-11-01 04:55:00,64.2,53.5,29.79,SSW,202,3.1,3.1,68,0.05,,---,0.09,VWS V14.01,2013-11-01 08:55:00,
2013-11-01 05:00:00,64.1,53.7,29.79,SE,135,2.0,3.4,69,0.00,,---,0.09,VWS V14.01,2013-11-01 09:00:00,
2013-11-01 05:05:00,64.1,54.1,29.79,WSW,248,1.3,6.0,70,0.00,,---,0.09,VWS V14.01,2013-11-01 09:05:00,
2013-11-01 05:10:00,64.1,54.5,29.79,SE,135,2.2,3.6,71,0.00,,---,0.09,VWS V14.01,2013-11-01 09:10:00,
2013-11-01 05:15:00,64.2,54.7,29.79,NNE,22,4.0,10.5,71,0.00,,---,0.09,VWS V14.01,2013-11-01 09:15:00,
2013-11-01 05:20:00,64.4,54.4,29.79,SSW,202,2.0,4.9,70,0.00,,---,0.09,VWS V14.01,2013-11-01 09:20:00,
2013-11-01 05:25:00,64.4,54.8,29.79,WSW,248,3.8,3.8,71,0.00,,---,0.09,VWS V14.01,2013-11-01 09:25:00,
2013-11-01 05:30:00,64.1,55.2,29.79,WSW,248,1.6,6.5,73,0.00,,---,0.09,VWS V14.01,2013-11-01 09:30:00,
2013-11-01 05:35:00,64.4,55.6,29.79,NW,315,0.0,0.0,73,0.00,,---,0.09,VWS V14.01,2013-11-01 09:35:00,
2013-11-01 05:40:00,63.9,56.5,29.79,WNW,292,0.0,0.0,77,0.04,,---,0.13,VWS V14.01,2013-11-01 09:40:00,
2013-11-01 05:45:00,63.2,56.9,29.79,West,270,2.7,4.0,80,0.08,,---,0.17,VWS V14.01,2013-11-01 09:45:00,
2013-11-01 05:50:00,63.0,56.7,29.82,NNW,338,0.0,0.0,80,0.08,,---,0.17,VWS V14.01,2013-11-01 09:50:00,
2013-11-01 05:55:00,62.8,56.9,29.82,ENE,68,0.9,0.9,81,0.08,,---,0.17,VWS V14.01,2013-11-01 09:55:00,
2013-11-01 06:00:00,62.6,57.1,29.82,SSW,202,0.0,0.0,82,0.08,,---,0.17,VWS V14.01,2013-11-01 10:00:00,
2013-11-01 06:05:00,62.6,57.1,29.82,NNW,338,2.5,2.5,82,0.08,,---,0.17,VWS V14.01,2013-11-01 10:05:00,
2013-11-01 06:10:00,62.4,57.5,29.82,SSE,158,0.9,0.9,84,0.08,,---,0.17,VWS V14.01,2013-11-01 10:10:00,
2013-11-01 06:15:00,62.4,56.5,29.82,SSW,202,0.0,0.0,81,0.08,,---,0.17,VWS V14.01,2013-11-01 10:15:00,
2013-11-01 06:20:00,62.3,55.0,29.82,NNW,338,2.9,2.9,77,0.12,,---,0.21,VWS V14.01,2013-11-01 10:20:00,
2013-11-01 06:25:00,62.1,56.5,29.82,SE,135,0.0,0.0,82,0.12,,---,0.21,VWS V14.01,2013-11-01 10:25:00,
2013-11-01 06:30:00,62.1,55.5,29.82,SW,225,0.0,0.0,79,0.12,,---,0.21,VWS V14.01,2013-11-01 10:30:00,
2013-11-01 06:35:00,62.1,54.8,29.82,South,180,1.3,3.8,77,0.12,,---,0.21,VWS V14.01,2013-11-01 10:35:00,
2013-11-01 06:40:00,61.9,55.0,29.82,South,180,0.0,0.0,78,0.08,,---,0.21,VWS V14.01,2013-11-01 10:40:00,
2013-11-01 06:45:00,61.5,55.0,29.82,SSE,158,0.0,0.0,79,0.04,,---,0.21,VWS V14.01,2013-11-01 10:45:00,
2013-11-01 06:50:00,61.4,55.8,29.82,West,270,0.0,0.0,82,0.04,,---,0.21,VWS V14.01,2013-11-01 10:50:00,
2013-11-01 06:55:00,61.2,55.7,29.82,South,180,0.0,0.0,82,0.04,,---,0.21,VWS V14.01,2013-11-01 10:55:00,
2013-11-01 07:00:00,61.2,56.0,29.82,South,180,0.0,0.0,83,0.04,,---,0.21,VWS V14.01,2013-11-01 11:00:00,
2013-11-01 07:05:00,61.0,56.8,29.82,SSW,202,0.0,0.0,86,0.04,,---,0.21,VWS V14.01,2013-11-01 11:05:00,
2013-11-01 07:10:00,60.6,57.1,29.82,SE,135,0.0,0.0,88,0.04,,---,0.21,VWS V14.01,2013-11-01 11:10:00,
2013-11-01 07:15:00,60.6,57.4,29.82,North,0,0.0,0.0,89,0.04,,---,0.21,VWS V14.01,2013-11-01 11:15:00,
2013-11-01 07:20:00,60.6,58.6,29.82,West,270,0.0,0.0,93,0.00,,---,0.21,VWS V14.01,2013-11-01 11:20:00,
2013-11-01 07:25:00,60.3,58.8,29.82,SSW,202,0.0,0.0,95,0.00,,---,0.21,VWS V14.01,2013-11-01 11:25:00,
2013-11-01 07:30:00,60.3,59.4,29.82,SSW,202,0.0,0.0,97,0.00,,---,0.21,VWS V14.01,2013-11-01 11:30:00,
2013-11-01 07:34:00,60.3,60.3,29.85,SSW,202,0.0,0.0,100,0.00,,---,0.21,VWS V14.01,2013-11-01 11:34:00,
2013-11-01 07:39:00,60.1,60.1,29.85,SSW,202,0.0,0.0,100,0.00,,---,0.21,VWS V14.01,2013-11-01 11:39:00,
2013-11-01 07:44:00,59.9,59.9,29.85,SSW,202,0.0,0.0,100,0.00,,---,0.21,VWS V14.01,2013-11-01 11:44:00,
2013-11-01 07:49:00,59.9,59.9,29.85,WSW,248,0.0,0.0,100,0.00,,---,0.21,VWS V14.01,2013-11-01 11:49:00,
2013-11-01 07:54:00,59.7,59.7,29.85,SSW,202,0.0,0.0,100,0.00,,---,0.21,VWS V14.01,2013-11-01 11:54:00,
2013-11-01 07:59:00,59.7,59.7,29.85,South,180,0.0,0.0,100,0.00,,---,0.21,VWS V14.01,2013-11-01 11:59:00,
2013-11-01 08:04:00,59.6,59.6,29.85,SE,135,0.0,0.0,100,0.00,,---,0.21,VWS V14.01,2013-11-01 12:04:00,
2013-11-01 08:09:00,59.6,59.6,29.85,SSE,158,0.0,0.0,100,0.00,,---,0.21,VWS V14.01,2013-11-01 12:09:00,
2013-11-01 08:14:00,59.6,59.6,29.85,SSE,158,0.0,0.0,100,0.00,,---,0.21,VWS V14.01,2013-11-01 12:14:00,
2013-11-01 08:19:00,59.4,59.4,29.85,SSE,158,0.0,0.0,100,0.00,,---,0.21,VWS V14.01,2013-11-01 12:19:00,
2013-11-01 08:24:00,59.4,59.4,29.85,SSE,158,0.0,0.0,100,0.00,,---,0.21,VWS V14.01,2013-11-01 12:24:00,
2013-11-01 08:29:00,59.0,58.7,29.85,SSE,158,0.0,0.0,99,0.00,,---,0.21,VWS V14.01,2013-11-01 12:29:00,
2013-11-01 08:34:00,58.8,58.6,29.85,SSE,158,0.0,0.0,99,0.00,,---,0.21,VWS V14.01,2013-11-01 12:34:00,
2013-11-01 08:39:00,58.8,58.8,29.85,SSE,158,0.0,0.0,100,0.00,,---,0.21,VWS V14.01,2013-11-01 12:39:00,
2013-11-01 08:44:00,58.8,58.8,29.85,SSE,158,0.0,0.0,100,0.00,,---,0.21,VWS V14.01,2013-11-01 12:44:00,
2013-11-01 08:49:00,58.8,58.8,29.85,South,180,0.0,2.5,100,0.00,,---,0.21,VWS V14.01,2013-11-01 12:49:00,
2013-11-01 08:54:00,59.0,59.0,29.85,SSE,158,0.0,0.0,100,0.00,,---,0.21,VWS V14.01,2013-11-01 12:54:00,
2013-11-01 08:59:00,59.0,59.0,29.85,South,180,0.0,0.0,100,0.00,,---,0.21,VWS V14.01,2013-11-01 12:59:00,
2013-11-01 09:04:00,59.2,59.2,29.85,SE,135,0.0,0.0,100,0.00,,---,0.21,VWS V14.01,2013-11-01 13:04:00,
2013-11-01 09:09:00,59.6,59.6,29.85,South,180,0.0,0.0,100,0.00,,---,0.21,VWS V14.01,2013-11-01 13:09:00,
2013-11-01 09:14:00,59.7,59.7,29.85,SE,135,0.0,0.0,100,0.00,,---,0.21,VWS V14.01,2013-11-01 13:14:00,
2013-11-01 09:19:00,60.3,60.3,29.85,SE,135,0.0,0.0,100,0.00,,---,0.21,VWS V14.01,2013-11-01 13:19:00,
2013-11-01 09:24:00,61.0,61.0,29.85,SSE,158,0.0,0.0,100,0.00,,---,0.21,VWS V14.01,2013-11-01 13:24:00,
2013-11-01 09:29:00,61.2,61.2,29.85,ESE,112,0.0,0.0,100,0.00,,---,0.21,VWS V14.01,2013-11-01 13:29:00,
2013-11-01 09:34:00,61.5,57.6,29.85,ESE,112,0.0,0.0,87,0.00,,---,0.21,VWS V14.01,2013-11-01 13:34:00,
2013-11-01 09:39:00,62.4,55.5,29.85,ESE,112,0.0,0.0,78,0.00,,---,0.21,VWS V14.01,2013-11-01 13:39:00,
2013-11-01 09:44:00,62.3,51.6,29.85,West,270,0.0,0.0,68,0.00,,---,0.21,VWS V14.01,2013-11-01 13:44:00,
2013-11-01 09:49:00,62.3,51.2,29.82,South,180,0.0,0.0,67,0.00,,---,0.21,VWS V14.01,2013-11-01 13:49:00,
2013-11-01 09:54:00,62.8,51.3,29.82,North,0,0.0,1.3,66,0.00,,---,0.21,VWS V14.01,2013-11-01 13:54:00,
2013-11-01 09:59:00,62.6,50.3,29.82,NW,315,4.3,4.3,64,0.00,,---,0.21,VWS V14.01,2013-11-01 13:59:00,
2013-11-01 10:04:00,62.4,49.3,29.85,WNW,292,0.0,0.0,62,0.00,,---,0.21,VWS V14.01,2013-11-01 14:04:00,
2013-11-01 10:09:00,62.4,48.8,29.85,West,270,0.0,0.0,61,0.00,,---,0.21,VWS V14.01,2013-11-01 14:09:00,
2013-11-01 10:14:00,63.0,48.4,29.85,ESE,112,0.0,1.3,59,0.00,,---,0.21,VWS V14.01,2013-11-01 14:14:00,
2013-11-01 10:19:00,63.3,50.1,29.85,WNW,292,0.9,0.9,62,0.00,,---,0.21,VWS V14.01,2013-11-01 14:19:00,
2013-11-01 10:24:00,64.1,47.6,29.85,South,180,0.0,1.1,55,0.00,,---,0.21,VWS V14.01,2013-11-01 14:24:00,
2013-11-01 10:29:00,64.1,49.9,29.85,NW,315,2.7,2.7,60,0.00,,---,0.21,VWS V14.01,2013-11-01 14:29:00,
2013-11-01 10:34:00,63.7,46.8,29.85,NNE,22,2.5,2.5,54,0.00,,---,0.21,VWS V14.01,2013-11-01 14:34:00,
2013-11-01 10:39:00,63.7,45.2,29.85,NNW,338,1.1,1.1,51,0.00,,---,0.21,VWS V14.01,2013-11-01 14:39:00,
2013-11-01 10:44:00,63.5,44.0,29.85,NW,315,0.0,0.0,49,0.00,,---,0.00,VWS V14.01,2013-11-01 14:44:00,
2013-11-01 10:49:00,63.5,44.0,29.85,WSW,248,0.0,1.1,49,0.00,,---,0.21,VWS V14.01,2013-11-01 14:49:00,
2013-11-01 10:54:00,63.9,44.4,29.85,NNW,338,2.0,2.7,49,0.00,,---,0.21,VWS V14.01,2013-11-01 14:54:00,
2013-11-01 10:59:00,64.2,44.7,29.85,WNW,292,0.9,0.9,49,0.00,,---,0.21,VWS V14.01,2013-11-01 14:59:00,
2013-11-01 11:04:00,64.6,43.4,29.85,SE,135,0.0,0.0,46,0.00,,---,0.21,VWS V14.01,2013-11-01 15:04:00,
2013-11-01 11:09:00,64.6,43.4,29.85,WNW,292,1.6,2.9,46,0.00,,---,0.21,VWS V14.01,2013-11-01 15:09:00,
2013-11-01 11:14:00,64.8,42.4,29.85,NNE,22,0.0,0.0,44,0.00,,---,0.21,VWS V14.01,2013-11-01 15:14:00,
2013-11-01 11:19:00,65.3,42.9,29.85,NNW,338,3.1,3.1,44,0.00,,---,0.21,VWS V14.01,2013-11-01 15:19:00,
2013-11-01 11:24:00,65.5,42.4,29.85,SSE,158,2.5,2.5,43,0.00,,---,0.21,VWS V14.01,2013-11-01 15:24:00,
2013-11-01 11:29:00,65.7,42.6,29.85,SE,135,1.6,2.7,43,0.00,,---,0.21,VWS V14.01,2013-11-01 15:29:00,
2013-11-01 11:34:00,66.4,43.2,29.85,South,180,3.1,3.1,43,0.00,,---,0.21,VWS V14.01,2013-11-01 15:34:00,
2013-11-01 11:39:00,66.2,43.1,29.85,SE,135,1.3,3.1,43,0.00,,---,0.21,VWS V14.01,2013-11-01 15:39:00,
2013-11-01 11:44:00,66.6,43.4,29.85,ESE,112,2.7,2.7,43,0.00,,---,0.21,VWS V14.01,2013-11-01 15:44:00,
2013-11-01 11:49:00,66.6,42.2,29.82,SSE,158,3.6,3.6,41,0.00,,---,0.21,VWS V14.01,2013-11-01 15:49:00,
2013-11-01 11:54:00,66.9,42.5,29.82,NNW,338,3.1,3.1,41,0.00,,---,0.21,VWS V14.01,2013-11-01 15:54:00,
2013-11-01 11:59:00,66.9,42.5,29.82,WNW,292,2.0,2.0,41,0.00,,---,0.21,VWS V14.01,2013-11-01 15:59:00,
2013-11-01 12:04:00,67.3,42.8,29.82,NNE,22,0.0,2.9,41,0.00,,---,0.21,VWS V14.01,2013-11-01 16:04:00,
2013-11-01 12:09:00,67.7,43.1,29.82,SSW,202,1.6,2.5,41,0.00,,---,0.21,VWS V14.01,2013-11-01 16:09:00,
2013-11-01 12:14:00,67.7,43.1,29.82,North,0,3.8,3.8,41,0.00,,---,0.21,VWS V14.01,2013-11-01 16:14:00,
2013-11-01 12:19:00,67.8,43.3,29.82,NNW,338,2.9,2.9,41,0.00,,---,0.21,VWS V14.01,2013-11-01 16:19:00,
2013-11-01 12:24:00,67.7,43.1,29.82,WSW,248,0.0,1.6,41,0.00,,---,0.21,VWS V14.01,2013-11-01 16:24:00,
2013-11-01 12:29:00,68.2,43.6,29.82,NNW,338,2.7,2.7,41,0.00,,---,0.21,VWS V14.01,2013-11-01 16:29:00,
2013-11-01 12:34:00,68.0,43.5,29.82,WSW,248,2.2,2.7,41,0.00,,---,0.21,VWS V14.01,2013-11-01 16:34:00,
2013-11-01 12:39:00,67.8,43.3,29.82,NNW,338,2.9,3.8,41,0.00,,---,0.21,VWS V14.01,2013-11-01 16:39:00,
2013-11-01 12:44:00,68.2,43.6,29.82,WSW,248,0.0,0.0,41,0.00,,---,0.21,VWS V14.01,2013-11-01 16:44:00,
2013-11-01 12:49:00,68.2,43.6,29.82,SE,135,1.6,2.5,41,0.00,,---,0.21,VWS V14.01,2013-11-01 16:49:00,
2013-11-01 12:54:00,68.7,44.1,29.82,SSE,158,3.6,3.6,41,0.00,,---,0.21,VWS V14.01,2013-11-01 16:54:00,
2013-11-01 12:59:00,69.3,44.0,29.82,WNW,292,1.3,2.0,40,0.00,,---,0.21,VWS V14.01,2013-11-01 16:59:00,
2013-11-01 13:02:00,-1.2,-24.5,0.00,SSE,158,2.7,2.7,31,14.33,,---,0.16,VWS V14.01,2013-11-01 17:02:00,
2013-11-01 13:04:00,68.7,44.1,29.82,North,0,3.8,6.7,41,0.00,,---,0.21,VWS V14.01,2013-11-01 17:04:00,
2013-11-01 13:09:00,68.6,44.0,29.82,NNE,22,2.5,4.9,41,0.00,,---,0.21,VWS V14.01,2013-11-01 17:09:00,
2013-11-01 13:14:00,68.7,44.1,29.82,NW,315,2.7,7.4,41,0.00,,---,0.21,VWS V14.01,2013-11-01 17:14:00,
2013-11-01 13:19:00,68.9,44.3,29.82,NNW,338,1.3,3.6,41,0.00,,---,0.21,VWS V14.01,2013-11-01 17:19:00,
2013-11-01 13:24:00,68.7,44.1,29.82,NW,315,4.0,6.0,41,0.00,,---,0.21,VWS V14.01,2013-11-01 17:24:00,
2013-11-01 13:29:00,68.7,44.1,29.82,West,270,3.4,5.6,41,0.00,,---,0.21,VWS V14.01,2013-11-01 17:29:00,
2013-11-01 13:34:00,69.3,44.0,29.79,NE,45,2.5,2.5,40,0.00,,---,0.21,VWS V14.01,2013-11-01 17:34:00,
2013-11-01 13:39:00,70.0,44.6,29.79,WNW,292,1.3,2.2,40,0.00,,---,0.21,VWS V14.01,2013-11-01 17:39:00,
2013-11-01 13:44:00,70.2,44.8,29.79,WNW,292,2.9,4.7,40,0.00,,---,0.21,VWS V14.01,2013-11-01 17:44:00,
2013-11-01 13:49:00,70.0,44.6,29.79,WNW,292,2.0,3.6,40,0.00,,---,0.21,VWS V14.01,2013-11-01 17:49:00,
2013-11-01 13:54:00,69.8,44.4,29.79,South,180,1.3,3.1,40,0.00,,---,0.21,VWS V14.01,2013-11-01 17:54:00,
2013-11-01 13:59:00,70.7,45.2,29.79,SW,225,0.0,1.1,40,0.00,,---,0.21,VWS V14.01,2013-11-01 17:59:00,
2013-11-01 14:04:00,69.8,44.4,29.76,NW,315,5.8,5.8,40,0.00,,---,0.21,VWS V14.01,2013-11-01 18:04:00,
2013-11-01 14:09:00,69.8,44.4,29.76,NNW,338,4.9,4.9,40,0.00,,---,0.21,VWS V14.01,2013-11-01 18:09:00,
2013-11-01 14:14:00,70.0,44.6,29.76,NW,315,0.9,0.9,40,0.00,,---,0.21,VWS V14.01,2013-11-01 18:14:00,
2013-11-01 14:19:00,70.9,45.4,29.79,NNW,338,3.4,4.3,40,0.00,,---,0.21,VWS V14.01,2013-11-01 18:19:00,
2013-11-01 14:24:00,70.7,45.2,29.79,SSW,202,0.9,3.6,40,0.00,,---,0.21,VWS V14.01,2013-11-01 18:24:00,
2013-11-01 14:29:00,71.3,45.7,29.79,North,0,3.8,3.8,40,0.00,,---,0.21,VWS V14.01,2013-11-01 18:29:00,
2013-11-01 14:34:00,71.3,45.7,29.79,NNW,338,2.5,6.3,40,0.00,,---,0.21,VWS V14.01,2013-11-01 18:34:00,
2013-11-01 14:39:00,71.1,45.6,29.79,East,90,3.4,3.4,40,0.00,,---,0.21,VWS V14.01,2013-11-01 18:39:00,
2013-11-01 14:44:00,71.3,45.7,29.79,South,180,1.1,2.7,40,0.00,,---,0.21,VWS V14.01,2013-11-01 18:44:00,
2013-11-01 14:49:00,71.1,45.6,29.76,SE,135,4.7,4.7,40,0.00,,---,0.21,VWS V14.01,2013-11-01 18:49:00,
2013-11-01 14:54:00,71.4,45.9,29.76,WNW,292,0.9,1.6,40,0.00,,---,0.21,VWS V14.01,2013-11-01 18:54:00,
2013-11-01 14:59:00,71.3,45.7,29.76,NNW,338,3.1,3.8,40,0.00,,---,0.21,VWS V14.01,2013-11-01 18:59:00,
2013-11-01 15:04:00,71.4,45.9,29.76,North,0,4.3,6.0,40,0.00,,---,0.21,VWS V14.01,2013-11-01 19:04:00,
2013-11-01 15:09:00,71.3,45.7,29.76,NNW,338,3.1,3.6,40,0.00,,---,0.21,VWS V14.01,2013-11-01 19:09:00,
2013-11-01 15:14:00,71.4,45.9,29.76,ESE,112,2.9,2.9,40,0.00,,---,0.21,VWS V14.01,2013-11-01 19:14:00,
2013-11-01 15:19:00,71.4,45.9,29.74,NW,315,1.6,2.9,40,0.00,,---,0.21,VWS V14.01,2013-11-01 19:19:00,
2013-11-01 15:24:00,71.1,45.6,29.74,SE,135,1.3,3.1,40,0.00,,---,0.21,VWS V14.01,2013-11-01 19:24:00,
2013-11-01 15:29:00,71.6,46.0,29.74,NNE,22,1.1,2.5,40,0.00,,---,0.21,VWS V14.01,2013-11-01 19:29:00,
2013-11-01 15:34:00,71.6,46.0,29.74,WSW,248,2.5,2.5,40,0.00,,---,0.21,VWS V14.01,2013-11-01 19:34:00,
2013-11-01 15:39:00,71.1,45.6,29.74,NW,315,2.7,3.4,40,0.00,,---,0.21,VWS V14.01,2013-11-01 19:39:00,
2013-11-01 15:44:00,71.3,45.7,29.74,SE,135,3.4,3.4,40,0.00,,---,0.21,VWS V14.01,2013-11-01 19:44:00,
2013-11-01 15:49:00,72.0,46.4,29.74,WSW,248,2.5,2.9,40,0.00,,---,0.21,VWS V14.01,2013-11-01 19:49:00,
2013-11-01 15:54:00,71.6,46.0,29.74,SSW,202,2.7,2.7,40,0.00,,---,0.21,VWS V14.01,2013-11-01 19:54:00,
2013-11-01 15:59:00,71.1,45.6,29.74,SSE,158,4.0,4.5,40,0.00,,---,0.21,VWS V14.01,2013-11-01 19:59:00,
2013-11-01 16:04:00,70.9,45.4,29.74,SE,135,3.1,3.1,40,0.00,,---,0.21,VWS V14.01,2013-11-01 20:04:00,
2013-11-01 16:09:00,70.9,45.4,29.74,NNW,338,2.2,3.4,40,0.00,,---,0.21,VWS V14.01,2013-11-01 20:09:00,
2013-11-01 16:14:00,70.4,44.9,29.74,South,180,1.1,1.1,40,0.00,,---,0.21,VWS V14.01,2013-11-01 20:14:00,
2013-11-01 16:19:00,70.0,44.6,29.74,NW,315,1.1,4.3,40,0.00,,---,0.21,VWS V14.01,2013-11-01 20:19:00,
2013-11-01 16:24:00,69.8,44.4,29.74,South,180,0.0,1.1,40,0.00,,---,0.21,VWS V14.01,2013-11-01 20:24:00,
2013-11-01 16:29:00,69.5,44.1,29.74,West,270,2.9,3.1,40,0.00,,---,0.21,VWS V14.01,2013-11-01 20:29:00,
2013-11-01 16:34:00,69.5,44.1,29.74,ENE,68,0.0,0.0,40,0.00,,---,0.21,VWS V14.01,2013-11-01 20:34:00,
2013-11-01 16:39:00,69.1,43.8,29.74,WNW,292,0.9,2.2,40,0.00,,---,0.21,VWS V14.01,2013-11-01 20:39:00,
2013-11-01 16:44:00,69.1,43.8,29.74,SSW,202,0.0,0.0,40,0.00,,---,0.21,VWS V14.01,2013-11-01 20:44:00,
2013-11-01 16:49:00,68.7,44.1,29.74,WSW,248,0.0,0.9,41,0.00,,---,0.21,VWS V14.01,2013-11-01 20:49:00,
2013-11-01 16:54:00,68.4,43.8,29.74,SE,135,2.2,2.7,41,0.00,,---,0.21,VWS V14.01,2013-11-01 20:54:00,
2013-11-01 16:59:00,68.0,43.5,29.74,SSW,202,2.0,2.0,41,0.00,,---,0.21,VWS V14.01,2013-11-01 20:59:00,
2013-11-01 17:04:00,67.8,43.3,29.76,ENE,68,0.0,0.0,41,0.00,,---,0.21,VWS V14.01,2013-11-01 21:04:00,
2013-11-01 17:09:00,67.7,43.1,29.76,WNW,292,0.9,0.9,41,0.00,,---,0.21,VWS V14.01,2013-11-01 21:09:00,
2013-11-01 17:14:00,67.5,43.0,29.76,NW,315,0.0,3.1,41,0.00,,---,0.21,VWS V14.01,2013-11-01 21:14:00,
2013-11-01 17:19:00,66.9,42.5,29.76,SSW,202,0.0,1.1,41,0.00,,---,0.21,VWS V14.01,2013-11-01 21:19:00,
2013-11-01 17:24:00,66.9,42.5,29.76,WSW,248,0.0,0.0,41,0.00,,---,0.21,VWS V14.01,2013-11-01 21:24:00,
2013-11-01 17:29:00,66.2,41.8,29.76,SW,225,0.0,0.0,41,0.00,,---,0.21,VWS V14.01,2013-11-01 21:29:00,
2013-11-01 17:34:00,66.0,41.7,29.74,WNW,292,0.0,1.1,41,0.00,,---,0.21,VWS V14.01,2013-11-01 21:34:00,
2013-11-01 17:39:00,65.7,41.4,29.74,WSW,248,0.9,2.0,41,0.00,,---,0.21,VWS V14.01,2013-11-01 21:39:00,
2013-11-01 17:44:00,65.5,41.2,29.74,South,180,0.0,0.0,41,0.00,,---,0.21,VWS V14.01,2013-11-01 21:44:00,
2013-11-01 17:49:00,65.3,41.0,29.74,WNW,292,1.6,2.9,41,0.00,,---,0.21,VWS V14.01,2013-11-01 21:49:00,
2013-11-01 17:54:00,65.5,41.2,29.76,NW,315,2.0,5.4,41,0.00,,---,0.21,VWS V14.01,2013-11-01 21:54:00,
2013-11-01 17:59:00,65.1,40.9,29.76,WSW,248,0.0,0.0,41,0.00,,---,0.21,VWS V14.01,2013-11-01 21:59:00,
2013-11-01 18:04:00,64.6,40.4,29.76,SSW,202,0.0,0.0,41,0.00,,---,0.21,VWS V14.01,2013-11-01 22:04:00,
2013-11-01 18:09:00,64.6,40.4,29.76,SSW,202,0.0,0.0,41,0.00,,---,0.21,VWS V14.01,2013-11-01 22:09:00,
2013-11-01 18:14:00,63.7,39.6,29.76,South,180,0.0,0.0,41,0.00,,---,0.21,VWS V14.01,2013-11-01 22:14:00,
2013-11-01 18:19:00,63.7,39.6,29.79,SSW,202,0.0,0.0,41,0.00,,---,0.21,VWS V14.01,2013-11-01 22:19:00,
2013-11-01 18:24:00,62.8,39.4,29.79,South,180,0.0,0.0,42,0.00,,---,0.21,VWS V14.01,2013-11-01 22:24:00,
2013-11-01 18:29:00,62.1,38.7,29.79,WSW,248,1.6,2.5,42,0.00,,---,0.21,VWS V14.01,2013-11-01 22:29:00,
2013-11-01 18:34:00,61.2,37.9,29.79,South,180,0.0,0.0,42,0.00,,---,0.21,VWS V14.01,2013-11-01 22:34:00,
2013-11-01 18:39:00,60.5,37.3,29.79,South,180,1.3,1.3,42,0.00,,---,0.21,VWS V14.01,2013-11-01 22:39:00,
2013-11-01 18:44:00,59.0,39.4,29.79,South,180,0.0,1.6,48,0.00,,---,0.21,VWS V14.01,2013-11-01 22:44:00,
2013-11-01 18:49:00,58.1,39.6,29.79,SSE,158,0.0,0.0,50,0.00,,---,0.21,VWS V14.01,2013-11-01 22:49:00,
2013-11-01 18:54:00,57.2,40.3,29.79,South,180,0.0,0.0,53,0.00,,---,0.21,VWS V14.01,2013-11-01 22:54:00,
2013-11-01 18:59:00,56.3,40.8,29.79,South,180,1.1,2.0,56,0.00,,---,0.21,VWS V14.01,2013-11-01 22:59:00,
2013-11-01 19:04:00,56.1,40.7,29.79,South,180,2.0,2.0,56,0.00,,---,0.21,VWS V14.01,2013-11-01 23:04:00,
2013-11-01 19:09:00,54.9,40.4,29.79,South,180,1.3,2.0,58,0.00,,---,0.21,VWS V14.01,2013-11-01 23:09:00,
2013-11-01 19:14:00,54.5,41.4,29.79,SSE,158,2.2,2.7,61,0.00,,---,0.21,VWS V14.01,2013-11-01 23:14:00,
2013-11-01 19:19:00,54.3,41.6,29.79,SSE,158,1.6,2.0,62,0.00,,---,0.21,VWS V14.01,2013-11-01 23:19:00,
2013-11-01 19:24:00,54.3,41.6,29.79,South,180,0.0,0.0,62,0.00,,---,0.21,VWS V14.01,2013-11-01 23:24:00,
2013-11-01 19:29:00,54.5,42.2,29.79,SSW,202,0.0,0.0,63,0.00,,---,0.21,VWS V14.01,2013-11-01 23:29:00,
2013-11-01 19:34:00,54.2,41.9,29.76,SSW,202,0.0,0.0,63,0.00,,---,0.21,VWS V14.01,2013-11-01 23:34:00,
2013-11-01 19:39:00,52.7,42.1,29.76,SSE,158,2.5,2.5,67,0.00,,---,0.21,VWS V14.01,2013-11-01 23:39:00,
2013-11-01 19:44:00,52.4,41.7,29.76,SSE,158,2.0,2.2,67,0.00,,---,0.21,VWS V14.01,2013-11-01 23:44:00,
2013-11-01 19:49:00,52.2,42.0,29.79,South,180,0.0,0.0,68,0.00,,---,0.21,VWS V14.01,2013-11-01 23:49:00,
2013-11-01 19:54:00,51.8,42.0,29.79,South,180,0.0,0.0,69,0.00,,---,0.21,VWS V14.01,2013-11-01 23:54:00,
2013-11-01 19:59:00,51.6,42.2,29.79,South,180,2.0,2.2,70,0.00,,---,0.21,VWS V14.01,2013-11-01 23:59:00,
2013-11-01 20:04:00,51.1,41.7,29.82,South,180,0.0,0.0,70,0.00,,---,0.21,VWS V14.01,2013-11-02 00:04:00,
2013-11-01 20:09:00,50.6,41.2,29.82,SSW,202,0.0,0.9,70,0.00,,---,0.21,VWS V14.01,2013-11-02 00:09:00,
2013-11-01 20:14:00,50.6,42.2,29.82,South,180,2.0,2.2,73,0.00,,---,0.21,VWS V14.01,2013-11-02 00:14:00,
2013-11-01 20:19:00,50.9,43.3,29.82,South,180,2.0,2.5,75,0.00,,---,0.21,VWS V14.01,2013-11-02 00:19:00,
2013-11-01 20:24:00,51.1,42.8,29.82,SSW,202,0.0,1.3,73,0.00,,---,0.21,VWS V14.01,2013-11-02 00:24:00,
2013-11-01 20:29:00,51.3,42.9,29.82,SE,135,1.6,2.2,73,0.00,,---,0.21,VWS V14.01,2013-11-02 00:29:00,
2013-11-01 20:34:00,50.9,42.2,29.82,South,180,0.0,0.0,72,0.00,,---,0.21,VWS V14.01,2013-11-02 00:34:00,
2013-11-01 20:39:00,50.6,42.2,29.82,SSW,202,0.0,2.2,73,0.00,,---,0.21,VWS V14.01,2013-11-02 00:39:00,
2013-11-01 20:44:00,49.8,42.9,29.82,SSW,202,0.0,1.6,77,0.00,,---,0.21,VWS V14.01,2013-11-02 00:44:00,
2013-11-01 20:49:00,49.8,42.9,29.82,SSW,202,0.0,1.1,77,0.00,,---,0.21,VWS V14.01,2013-11-02 00:49:00,
2013-11-01 20:54:00,50.2,42.6,29.82,South,180,0.0,0.0,75,0.00,,---,0.21,VWS V14.01,2013-11-02 00:54:00,
2013-11-01 20:59:00,50.0,42.8,29.82,South,180,2.7,3.1,76,0.00,,---,0.21,VWS V14.01,2013-11-02 00:59:00,
2013-11-01 21:04:00,49.1,41.9,29.82,SSE,158,2.5,2.7,76,0.00,,---,0.21,VWS V14.01,2013-11-02 01:04:00,
2013-11-01 21:09:00,49.3,43.1,29.82,SSE,158,2.7,2.7,79,0.00,,---,0.21,VWS V14.01,2013-11-02 01:09:00,
2013-11-01 21:14:00,49.3,42.7,29.82,SSE,158,1.6,2.2,78,0.00,,---,0.21,VWS V14.01,2013-11-02 01:14:00,
2013-11-01 21:19:00,49.1,42.6,29.82,SE,135,0.0,0.0,78,0.00,,---,0.21,VWS V14.01,2013-11-02 01:19:00,
2013-11-01 21:24:00,48.9,43.0,29.82,SSE,158,1.3,2.2,80,0.00,,---,0.21,VWS V14.01,2013-11-02 01:24:00,
2013-11-01 21:29:00,48.9,43.7,29.82,South,180,0.9,2.9,82,0.00,,---,0.21,VWS V14.01,2013-11-02 01:29:00,
2013-11-01 21:34:00,49.1,43.2,29.82,SSE,158,0.0,0.0,80,0.00,,---,0.21,VWS V14.01,2013-11-02 01:34:00,
2013-11-01 21:39:00,48.9,42.7,29.82,SSW,202,1.6,1.6,79,0.00,,---,0.21,VWS V14.01,2013-11-02 01:39:00,
2013-11-01 21:44:00,49.5,42.9,29.82,SSE,158,3.1,3.1,78,0.00,,---,0.21,VWS V14.01,2013-11-02 01:44:00,
2013-11-01 21:49:00,49.3,42.1,29.85,SSE,158,0.0,0.0,76,0.00,,---,0.21,VWS V14.01,2013-11-02 01:49:00,
2013-11-01 21:54:00,49.5,42.2,29.85,SE,135,2.0,2.0,76,0.00,,---,0.21,VWS V14.01,2013-11-02 01:54:00,
2013-11-01 21:59:00,49.8,41.9,29.85,SSE,158,0.0,1.6,74,0.00,,---,0.21,VWS V14.01,2013-11-02 01:59:00,
2013-11-01 22:04:00,50.0,42.1,29.85,SE,135,0.0,1.6,74,0.00,,---,0.21,VWS V14.01,2013-11-02 02:04:00,
2013-11-01 22:09:00,49.3,41.0,29.85,SSE,158,2.2,2.5,73,0.00,,---,0.21,VWS V14.01,2013-11-02 02:09:00,
2013-11-01 22:14:00,48.8,41.5,29.85,SSW,202,0.0,2.5,76,0.00,,---,0.21,VWS V14.01,2013-11-02 02:14:00,
2013-11-01 22:19:00,48.6,42.0,29.85,SSW,202,0.0,0.0,78,0.00,,---,0.21,VWS V14.01,2013-11-02 02:19:00,
2013-11-01 22:24:00,48.2,41.7,29.85,SSE,158,0.0,0.0,78,0.00,,---,0.21,VWS V14.01,2013-11-02 02:24:00,
2013-11-01 22:29:00,48.2,42.3,29.85,SSW,202,0.0,0.0,80,0.00,,---,0.21,VWS V14.01,2013-11-02 02:29:00,
2013-11-01 22:34:00,48.0,42.2,29.85,NNE,22,0.0,1.3,80,0.00,,---,0.21,VWS V14.01,2013-11-02 02:34:00,
2013-11-01 22:39:00,48.0,42.5,29.85,South,180,2.0,2.0,81,0.00,,---,0.21,VWS V14.01,2013-11-02 02:39:00,
2013-11-01 22:44:00,48.2,43.3,29.85,NNE,22,2.0,2.0,83,0.00,,---,0.21,VWS V14.01,2013-11-02 02:44:00,
2013-11-01 22:49:00,48.4,43.2,29.85,South,180,0.0,0.0,82,0.00,,---,0.21,VWS V14.01,2013-11-02 02:49:00,
2013-11-01 22:54:00,48.4,42.8,29.85,SSW,202,1.6,2.0,81,0.00,,---,0.21,VWS V14.01,2013-11-02 02:54:00,
2013-11-01 22:59:00,48.4,42.2,29.85,SE,135,0.0,0.0,79,0.00,,---,0.21,VWS V14.01,2013-11-02 02:59:00,
2013-11-01 23:04:00,48.2,42.0,29.85,SSE,158,0.0,0.0,79,0.00,,---,0.21,VWS V14.01,2013-11-02 03:04:00,
2013-11-01 23:09:00,48.0,42.2,29.85,SSE,158,2.0,2.0,80,0.00,,---,0.21,VWS V14.01,2013-11-02 03:09:00,
2013-11-01 23:14:00,48.0,42.2,29.85,South,180,1.1,1.1,80,0.00,,---,0.21,VWS V14.01,2013-11-02 03:14:00,
2013-11-01 23:19:00,47.5,41.7,29.85,SE,135,0.0,0.0,80,0.00,,---,0.21,VWS V14.01,2013-11-02 03:19:00,
2013-11-01 23:24:00,47.5,41.7,29.85,SSW,202,0.0,0.0,80,0.00,,---,0.21,VWS V14.01,2013-11-02 03:24:00,
2013-11-01 23:29:00,47.5,42.6,29.85,South,180,0.0,0.0,83,0.00,,---,0.21,VWS V14.01,2013-11-02 03:29:00,
2013-11-01 23:34:00,47.1,41.9,29.85,South,180,0.0,0.0,82,0.00,,---,0.21,VWS V14.01,2013-11-02 03:34:00,
2013-11-01 23:39:00,47.0,42.4,29.85,SSW,202,0.0,0.9,84,0.00,,---,0.21,VWS V14.01,2013-11-02 03:39:00,
2013-11-01 23:44:00,46.6,42.0,29.85,SSW,202,0.0,0.0,84,0.00,,---,0.21,VWS V14.01,2013-11-02 03:44:00,
2013-11-01 23:49:00,46.1,41.2,29.85,SSE,158,3.1,3.1,83,0.00,,---,0.21,VWS V14.01,2013-11-02 03:49:00,
2013-11-01 23:54:00,46.4,42.2,29.85,South,180,2.0,2.0,85,0.00,,---,0.21,VWS V14.01,2013-11-02 03:54:00,
2013-11-01 23:59:00,46.2,42.3,29.85,SSW,202,0.0,0.0,86,0.00,,---,0.21,VWS V14.01,2013-11-02 03:59:00,